Time;durP1;ratioP1;P1;durP2;ratioP2;P2;SDS_P1;SDS_P2;PMS_P1;PMS_P2;Temp;Humidity;BMP_temperature;BMP_pressure;BME280_temperature;BME280_humidity;BME280_pressure;Samples;Min_cycle;Max_cycle;Signal;HPM_P1;HPM_P2
2022/12/06 00:01:33;;;;;;;8.15;3.80;;;6.50;84.20;;;;;;5115250;28;20406;-76
2022/12/06 00:04:02;;;;;;;7.15;3.15;;;6.60;84.20;;;;;;5106780;28;20048;-76
2022/12/06 00:06:31;;;;;;;7.72;3.78;;;6.60;84.10;;;;;;5114795;28;20170;-76
2022/12/06 00:08:59;;;;;;;7.78;3.75;;;6.60;84.00;;;;;;5098071;28;20044;-76
2022/12/06 00:11:28;;;;;;;5.10;3.13;;;6.60;84.00;;;;;;5114911;28;20032;-76
2022/12/06 00:13:56;;;;;;;6.57;3.85;;;6.60;83.90;;;;;;5107665;28;20487;-76
2022/12/06 00:16:22;;;;;;;7.82;3.72;;;6.60;83.90;;;;;;5114492;28;20043;-76
2022/12/06 00:18:49;;;;;;;10.18;3.72;;;6.60;83.90;;;;;;5112447;28;20051;-76
2022/12/06 00:21:22;;;;;;;6.93;3.40;;;6.60;83.80;;;;;;5097898;28;20043;-77
2022/12/06 00:23:53;;;;;;;7.90;3.40;;;6.60;83.80;;;;;;5114015;28;20093;-68
2022/12/06 00:26:20;;;;;;;6.78;3.47;;;6.60;83.70;;;;;;5097270;28;20040;-69
2022/12/06 00:28:46;;;;;;;7.30;3.63;;;6.60;83.60;;;;;;5114789;28;20040;-67
2022/12/06 00:31:17;;;;;;;6.00;3.35;;;6.60;83.60;;;;;;5072478;28;20050;-67
2022/12/06 00:33:42;;;;;;;9.60;3.25;;;6.70;83.60;;;;;;5107406;28;20452;-68
2022/12/06 00:36:36;;;;;;;10.45;5.03;;;6.60;83.40;;;;;;5114227;28;20082;-68
2022/12/06 00:39:09;;;;;;;5.00;3.22;;;6.60;83.30;;;;;;5108281;28;20051;-68
2022/12/06 00:41:35;;;;;;;6.45;3.20;;;6.60;83.40;;;;;;5114235;28;20036;-76
2022/12/06 00:44:00;;;;;;;8.55;3.78;;;6.60;83.30;;;;;;5112356;28;20054;-76
2022/12/06 00:46:28;;;;;;;8.98;3.58;;;6.60;83.20;;;;;;5114110;28;20475;-76
2022/12/06 00:48:56;;;;;;;8.73;3.60;;;6.60;83.20;;;;;;5113865;28;20043;-76
2022/12/06 00:51:23;;;;;;;8.98;3.65;;;6.60;83.10;;;;;;5113951;28;20043;-76
2022/12/06 00:53:50;;;;;;;7.20;3.42;;;6.60;83.10;;;;;;5113963;28;20043;-76
2022/12/06 00:56:17;;;;;;;6.68;3.35;;;6.60;83.10;;;;;;5114210;28;20066;-76
2022/12/06 00:58:43;;;;;;;6.35;3.10;;;6.60;83.00;;;;;;5109918;28;20047;-75
2022/12/06 01:01:12;;;;;;;8.02;3.67;;;6.60;83.00;;;;;;5118964;28;20046;-76
2022/12/06 01:03:39;;;;;;;6.05;3.05;;;6.60;83.00;;;;;;5120868;28;20039;-76
2022/12/06 01:06:07;;;;;;;7.97;3.47;;;6.60;83.00;;;;;;5113957;28;20044;-76
2022/12/06 01:08:34;;;;;;;8.35;4.25;;;6.60;83.00;;;;;;5113855;28;20085;-76
2022/12/06 01:11:01;;;;;;;5.93;3.15;;;6.60;82.90;;;;;;5096445;28;20042;-76
2022/12/06 01:13:28;;;;;;;6.75;4.03;;;6.60;82.90;;;;;;5113605;28;20027;-76
2022/12/06 01:15:54;;;;;;;7.20;3.55;;;6.60;82.90;;;;;;5113538;28;20042;-76
2022/12/06 01:18:20;;;;;;;7.45;4.13;;;6.60;82.90;;;;;;5113253;28;20039;-76
2022/12/06 01:20:46;;;;;;;6.78;3.05;;;6.60;82.80;;;;;;5113987;28;20032;-76
2022/12/06 01:23:13;;;;;;;6.68;3.45;;;6.60;82.80;;;;;;5113491;28;20100;-76
2022/12/06 01:25:38;;;;;;;9.82;4.25;;;6.60;82.70;;;;;;5113354;28;20040;-76
2022/12/06 01:28:04;;;;;;;8.18;3.30;;;6.60;82.80;;;;;;5113125;28;20035;-76
2022/12/06 01:30:30;;;;;;;6.93;3.42;;;6.60;82.80;;;;;;5113276;28;20043;-76
2022/12/06 01:32:55;;;;;;;5.88;3.25;;;6.60;82.80;;;;;;5093113;28;20109;-76
2022/12/06 01:35:21;;;;;;;7.20;3.08;;;6.50;82.70;;;;;;5112672;28;20035;-75
2022/12/06 01:37:47;;;;;;;6.88;3.28;;;6.60;82.80;;;;;;5096201;28;20051;-76
2022/12/06 01:40:13;;;;;;;9.27;3.78;;;6.60;82.80;;;;;;5113057;28;20027;-76
2022/12/06 01:42:39;;;;;;;6.18;3.22;;;6.60;82.80;;;;;;5113279;28;20040;-76
2022/12/06 01:45:05;;;;;;;7.40;3.05;;;6.60;82.70;;;;;;5112676;28;20107;-76
2022/12/06 01:47:42;;;;;;;6.43;2.95;;;6.60;82.70;;;;;;5112581;28;20039;-76
2022/12/06 01:50:11;;;;;;;9.27;3.40;;;6.60;82.70;;;;;;5109580;28;20059;-76
2022/12/06 01:52:46;;;;;;;8.55;3.45;;;6.60;82.70;;;;;;5113172;28;20082;-76
2022/12/06 01:55:13;;;;;;;8.80;4.20;;;6.60;83.10;;;;;;5112377;28;20518;-75
2022/12/06 01:57:39;;;;;;;10.25;4.85;;;6.60;82.60;;;;;;5112730;28;20047;-76
2022/12/06 02:00:05;;;;;;;7.45;4.78;;;6.60;82.60;;;;;;5112976;28;20040;-76
2022/12/06 02:02:31;;;;;;;10.70;5.15;;;6.60;82.50;;;;;;5112583;28;20123;-76
2022/12/06 02:04:59;;;;;;;12.55;5.18;;;6.60;82.40;;;;;;5112243;28;20130;-76
2022/12/06 02:07:26;;;;;;;8.65;4.32;;;6.60;82.40;;;;;;5115509;27;20049;-75
2022/12/06 02:09:53;;;;;;;7.43;4.03;;;6.60;82.40;;;;;;5115825;27;20047;-75
2022/12/06 02:12:19;;;;;;;10.45;5.80;;;6.60;82.30;;;;;;5099155;27;20042;-75
2022/12/06 02:14:48;;;;;;;7.35;4.50;;;6.60;82.30;;;;;;5115837;27;20482;-76
2022/12/06 02:17:48;;;;;;;9.73;4.65;;;6.60;82.20;;;;;;5115846;27;20039;-75
2022/12/06 02:20:27;;;;;;;8.30;4.45;;;6.60;82.20;;;;;;5115573;27;20043;-76
2022/12/06 02:23:33;;;;;;;5.95;3.17;;;6.60;82.20;;;;;;5108859;27;20071;-75
2022/12/06 02:26:17;;;;;;;6.97;2.85;;;6.60;82.10;;;;;;5107600;27;20085;-75
2022/12/06 02:29:10;;;;;;;6.18;2.92;;;6.50;82.10;;;;;;5115687;27;20038;-76
2022/12/06 02:31:41;;;;;;;6.10;2.78;;;6.50;82.00;;;;;;5115211;27;20035;-75
2022/12/06 02:34:17;;;;;;;8.57;3.15;;;6.50;82.10;;;;;;5089962;28;20114;-75
2022/12/06 02:36:49;;;;;;;6.13;3.30;;;6.50;82.10;;;;;;5114901;27;20043;-75
2022/12/06 02:39:20;;;;;;;5.30;3.22;;;6.50;82.10;;;;;;5115957;27;20066;-75
2022/12/06 02:42:12;;;;;;;6.25;2.85;;;6.50;82.10;;;;;;5098332;27;20046;-75
2022/12/06 02:44:43;;;;;;;4.65;2.92;;;6.50;82.10;;;;;;5126291;27;20481;-76
2022/12/06 02:47:11;;;;;;;6.50;2.80;;;6.50;82.10;;;;;;5115074;27;20043;-76
2022/12/06 02:49:43;;;;;;;5.57;2.38;;;6.50;82.10;;;;;;5114902;27;20541;-75
2022/12/06 02:52:11;;;;;;;6.88;3.17;;;6.50;82.00;;;;;;5115061;27;20054;-76
2022/12/06 02:54:38;;;;;;;4.80;2.35;;;6.50;82.00;;;;;;5114582;27;20058;-76
2022/12/06 02:57:04;;;;;;;4.10;2.47;;;6.50;82.00;;;;;;5114898;27;20038;-75
2022/12/06 02:59:29;;;;;;;5.47;3.03;;;6.50;82.00;;;;;;5107249;27;20043;-75
2022/12/06 03:01:58;;;;;;;4.35;2.38;;;6.50;82.00;;;;;;5108248;27;20478;-76
2022/12/06 03:04:56;;;;;;;5.72;2.63;;;6.50;82.00;;;;;;5114916;27;20069;-75
2022/12/06 03:07:34;;;;;;;4.28;2.65;;;6.50;81.90;;;;;;5114687;27;20122;-75
2022/12/06 03:10:25;;;;;;;5.22;2.75;;;6.50;82.00;;;;;;5115025;27;20035;-76
2022/12/06 03:12:51;;;;;;;3.55;2.20;;;6.50;82.00;;;;;;5115308;27;20438;-76
2022/12/06 03:15:39;;;;;;;5.95;2.33;;;6.50;82.00;;;;;;5114880;27;20077;-76
2022/12/06 03:18:08;;;;;;;4.95;2.45;;;6.50;82.00;;;;;;5110934;28;20091;-76
2022/12/06 03:20:41;;;;;;;3.42;1.88;;;6.50;82.00;;;;;;5115989;27;20390;-76
2022/12/06 03:23:12;;;;;;;4.47;2.33;;;6.50;82.00;;;;;;5107825;28;20038;-77
2022/12/06 03:25:38;;;;;;;5.85;2.33;;;6.50;81.90;;;;;;5133366;28;20053;-76
2022/12/06 03:28:09;;;;;;;4.50;2.05;;;6.50;81.80;;;;;;5078217;28;20039;-75
2022/12/06 03:30:35;;;;;;;4.28;2.05;;;6.50;81.80;;;;;;5110749;28;20070;-76
2022/12/06 03:33:01;;;;;;;4.75;2.13;;;6.40;81.60;;;;;;5106346;28;20089;-75
2022/12/06 03:35:31;;;;;;;5.20;2.60;;;6.50;81.70;;;;;;5114743;28;20054;-75
2022/12/06 03:38:13;;;;;;;4.97;2.25;;;6.50;81.60;;;;;;5114622;28;20047;-76
2022/12/06 03:40:44;;;;;;;5.28;1.90;;;6.50;81.60;;;;;;5114299;28;20039;-75
2022/12/06 03:43:10;;;;;;;5.03;2.38;;;6.50;81.60;;;;;;5114486;28;20088;-75
2022/12/06 03:46:03;;;;;;;4.88;2.05;;;6.50;81.50;;;;;;5114343;28;20489;-75
2022/12/06 03:48:47;;;;;;;4.55;2.00;;;6.50;81.50;;;;;;5110416;28;20083;-75
2022/12/06 03:51:20;;;;;;;4.80;2.00;;;6.50;81.90;;;;;;5114372;28;20042;-75
2022/12/06 03:53:55;;;;;;;5.10;2.42;;;6.50;81.50;;;;;;5113996;28;20103;-75
2022/12/06 03:56:22;;;;;;;3.80;2.17;;;6.50;81.50;;;;;;5114398;28;20099;-76
2022/12/06 03:58:48;;;;;;;4.57;2.00;;;6.50;81.40;;;;;;5097478;28;20051;-75
2022/12/06 04:01:14;;;;;;;4.95;2.10;;;6.50;81.30;;;;;;5097662;28;20180;-75
2022/12/06 04:03:40;;;;;;;3.13;1.60;;;6.40;81.10;;;;;;5114162;27;20106;-75
2022/12/06 04:06:07;;;;;;;5.00;1.70;;;6.40;81.10;;;;;;5113878;28;20172;-75
2022/12/06 04:08:33;;;;;;;4.75;2.72;;;6.40;81.10;;;;;;5114660;28;20509;-75
2022/12/06 04:10:59;;;;;;;4.30;1.60;;;6.40;81.10;;;;;;5112631;28;20084;-75
2022/12/06 04:13:25;;;;;;;4.63;2.10;;;6.40;81.10;;;;;;5114427;28;20130;-75
2022/12/06 04:15:54;;;;;;;3.47;2.25;;;6.40;81.10;;;;;;5083555;28;20104;-75
2022/12/06 04:18:22;;;;;;;5.22;1.70;;;6.40;81.00;;;;;;5116657;27;20039;-75
2022/12/06 04:23:39;;;;;;;2.85;1.70;;;6.40;81.00;;;;;;5113505;27;20175;-74
2022/12/06 04:26:07;;;;;;;4.18;2.05;;;6.40;80.90;;;;;;5118723;27;20034;-75
2022/12/06 04:39:31;;;;;;;3.42;1.80;;;6.30;80.70;;;;;;5117735;27;20042;-76
2022/12/06 04:44:42;;;;;;;4.43;2.00;;;6.30;80.60;;;;;;5113323;27;20039;-75
2022/12/06 04:47:08;;;;;;;5.25;1.63;;;6.30;81.00;;;;;;5117341;27;20478;-75
2022/12/06 04:49:34;;;;;;;3.72;1.83;;;6.30;80.50;;;;;;5083589;27;20088;-76
2022/12/06 04:52:00;;;;;;;2.75;1.67;;;6.30;80.40;;;;;;5117837;27;20381;-76
2022/12/06 04:54:28;;;;;;;4.10;1.55;;;6.30;80.30;;;;;;5116909;27;20047;-76
2022/12/06 04:56:55;;;;;;;4.38;1.90;;;6.20;80.20;;;;;;5116938;27;20031;-75
2022/12/06 04:59:21;;;;;;;2.90;1.90;;;6.20;80.10;;;;;;5117221;27;20054;-75
2022/12/06 05:01:46;;;;;;;4.45;1.67;;;6.20;80.10;;;;;;5117386;27;20039;-75
2022/12/06 05:04:12;;;;;;;5.72;2.38;;;6.20;80.00;;;;;;5116834;27;20122;-75
2022/12/06 05:06:38;;;;;;;3.15;1.77;;;6.20;80.00;;;;;;5117100;27;20047;-76
2022/12/06 05:09:04;;;;;;;3.28;1.88;;;6.10;80.00;;;;;;5100591;27;20039;-75
2022/12/06 05:11:30;;;;;;;3.65;1.70;;;6.10;80.00;;;;;;5117660;27;20039;-75
2022/12/06 05:13:55;;;;;;;6.30;2.03;;;6.10;80.00;;;;;;5116930;27;20039;-75
2022/12/06 05:16:21;;;;;;;3.05;1.73;;;6.10;80.00;;;;;;5098801;27;20051;-75
2022/12/06 05:18:46;;;;;;;2.53;1.63;;;6.10;80.00;;;;;;5117069;27;20504;-76
2022/12/06 05:21:15;;;;;;;5.60;2.17;;;6.10;80.00;;;;;;5117172;27;20039;-75
2022/12/06 05:23:41;;;;;;;4.38;1.90;;;6.10;80.10;;;;;;5116716;27;20039;-76
2022/12/06 05:26:17;;;;;;;3.42;2.05;;;6.00;80.10;;;;;;5100032;27;20042;-76
2022/12/06 05:28:44;;;;;;;4.18;2.22;;;6.00;80.10;;;;;;5116602;27;20047;-68
2022/12/06 05:31:10;;;;;;;3.65;2.17;;;6.00;80.20;;;;;;5116514;27;20035;-67
2022/12/06 05:33:36;;;;;;;4.13;1.67;;;6.00;80.20;;;;;;5115933;27;20088;-68
2022/12/06 05:36:10;;;;;;;5.45;2.28;;;6.00;80.30;;;;;;5116325;27;20039;-68
2022/12/06 05:38:36;;;;;;;3.25;2.00;;;6.00;80.40;;;;;;5116243;27;20039;-67
2022/12/06 05:41:03;;;;;;;3.30;1.98;;;6.00;80.40;;;;;;5115178;27;20039;-68
2022/12/06 05:43:29;;;;;;;4.88;2.78;;;6.00;80.50;;;;;;5098762;27;20046;-75
2022/12/06 05:45:55;;;;;;;3.83;2.00;;;6.00;80.50;;;;;;5116488;27;20034;-76
2022/12/06 05:48:21;;;;;;;5.30;2.15;;;6.00;80.50;;;;;;5116033;27;20118;-76
2022/12/06 05:50:47;;;;;;;4.20;2.13;;;6.00;80.60;;;;;;5078227;27;20135;-76
2022/12/06 05:53:13;;;;;;;4.68;2.45;;;6.00;80.60;;;;;;5116138;27;20367;-75
2022/12/06 05:55:39;;;;;;;4.40;2.40;;;6.00;80.70;;;;;;5115823;27;20105;-75
2022/12/06 05:58:05;;;;;;;6.25;2.60;;;6.00;80.70;;;;;;5116476;27;20031;-75
2022/12/06 06:00:31;;;;;;;5.57;2.53;;;6.00;80.70;;;;;;5116337;27;20566;-75
2022/12/06 06:02:56;;;;;;;4.28;2.30;;;6.00;80.70;;;;;;5097064;27;20041;-75
2022/12/06 06:05:22;;;;;;;5.07;2.45;;;5.90;80.70;;;;;;5113206;27;20410;-75
2022/12/06 06:07:48;;;;;;;2.83;1.90;;;6.00;80.80;;;;;;5097241;27;20407;-76
2022/12/06 06:10:15;;;;;;;4.80;2.47;;;5.90;80.80;;;;;;5113456;27;20043;-75
2022/12/06 06:12:43;;;;;;;3.20;2.00;;;5.90;80.80;;;;;;5116084;27;20045;-75
2022/12/06 06:15:10;;;;;;;3.90;2.25;;;5.90;80.90;;;;;;5116006;27;20474;-79
2022/12/06 06:17:36;;;;;;;3.45;1.80;;;5.90;81.00;;;;;;5097545;27;20513;-80
2022/12/06 06:20:04;;;;;;;3.30;2.20;;;5.90;81.10;;;;;;5116493;27;20046;-79
2022/12/06 06:22:34;;;;;;;3.90;2.13;;;5.90;81.10;;;;;;5082928;27;20041;-80
2022/12/06 06:25:00;;;;;;;3.97;2.30;;;5.90;81.10;;;;;;5099167;27;20417;-81
2022/12/06 06:27:26;;;;;;;4.88;2.60;;;5.90;81.10;;;;;;5101251;27;20067;-81
2022/12/06 06:29:52;;;;;;;4.78;2.58;;;6.00;81.10;;;;;;5116638;27;20060;-81
2022/12/06 06:32:18;;;;;;;5.63;2.40;;;6.00;81.10;;;;;;5116346;27;20107;-81
2022/12/06 06:34:44;;;;;;;5.47;2.28;;;5.90;80.90;;;;;;5099845;27;20122;-81
2022/12/06 06:37:10;;;;;;;3.72;2.53;;;6.00;80.90;;;;;;5116252;27;20035;-81
2022/12/06 06:39:35;;;;;;;3.20;2.20;;;5.90;80.90;;;;;;5116421;27;20046;-81
2022/12/06 06:42:01;;;;;;;3.33;2.10;;;5.90;80.80;;;;;;5115844;27;20043;-81
2022/12/06 06:44:26;;;;;;;4.15;2.20;;;5.90;80.70;;;;;;5099263;27;20039;-82
2022/12/06 06:46:52;;;;;;;3.83;2.58;;;6.10;80.80;;;;;;5111126;27;20478;-81
2022/12/06 06:49:18;;;;;;;4.55;2.53;;;5.90;80.60;;;;;;5116279;27;20039;-81
2022/12/06 06:51:44;;;;;;;4.80;2.03;;;5.90;80.50;;;;;;5099478;27;20035;-82
2022/12/06 06:54:11;;;;;;;3.95;1.88;;;5.90;80.50;;;;;;5116318;27;20043;-82
2022/12/06 06:56:37;;;;;;;3.38;2.20;;;6.10;80.50;;;;;;5116435;27;20047;-81
2022/12/06 06:59:03;;;;;;;4.25;2.30;;;5.90;80.30;;;;;;5095805;27;20359;-81
2022/12/06 07:01:29;;;;;;;5.28;2.53;;;5.80;80.20;;;;;;5091279;27;20088;-81
2022/12/06 07:03:55;;;;;;;3.50;2.10;;;5.80;80.00;;;;;;5109733;27;20122;-81
2022/12/06 07:06:21;;;;;;;3.67;2.10;;;5.80;80.00;;;;;;5110187;27;20483;-81
2022/12/06 07:08:47;;;;;;;4.15;2.20;;;5.80;79.80;;;;;;5091436;27;20039;-82
2022/12/06 07:11:13;;;;;;;3.80;2.00;;;5.80;79.70;;;;;;5107302;28;20039;-81
2022/12/06 07:13:40;;;;;;;3.25;2.17;;;5.70;79.60;;;;;;5091583;28;20042;-81
2022/12/06 07:16:11;;;;;;;4.55;1.83;;;5.70;79.50;;;;;;5094418;28;20430;-81
2022/12/06 07:18:36;;;;;;;3.85;2.03;;;5.70;79.40;;;;;;5094672;28;20084;-81
2022/12/06 07:21:07;;;;;;;6.43;2.60;;;5.70;79.30;;;;;;5112859;28;20043;-77
2022/12/06 07:23:34;;;;;;;3.55;1.92;;;5.70;79.20;;;;;;5117984;28;20028;-77
2022/12/06 07:26:03;;;;;;;5.22;2.22;;;5.60;79.10;;;;;;5111337;28;20036;-76
2022/12/06 07:28:29;;;;;;;4.90;2.13;;;5.60;79.00;;;;;;5111489;28;20042;-77
2022/12/06 07:30:54;;;;;;;3.63;2.10;;;5.50;78.90;;;;;;5111321;28;20391;-76
2022/12/06 07:33:20;;;;;;;4.93;1.88;;;5.50;78.80;;;;;;5111799;28;20220;-77
2022/12/06 07:35:53;;;;;;;3.25;1.83;;;5.50;78.90;;;;;;5111826;28;20032;-77
2022/12/06 07:38:19;;;;;;;3.05;1.73;;;5.50;78.80;;;;;;5111481;28;20474;-77
2022/12/06 07:40:45;;;;;;;3.58;1.88;;;5.40;78.80;;;;;;5095149;28;20027;-77
2022/12/06 07:45:55;;;;;;;3.53;1.83;;;5.30;78.80;;;;;;5113127;28;20354;-76
2022/12/06 07:48:20;;;;;;;3.20;1.83;;;5.30;78.80;;;;;;5096315;28;20035;-76
2022/12/06 07:50:46;;;;;;;3.53;1.98;;;5.30;78.90;;;;;;5112218;28;20035;-77
2022/12/06 07:53:12;;;;;;;3.22;1.75;;;5.30;78.90;;;;;;5114119;28;20055;-76
2022/12/06 07:55:38;;;;;;;3.35;1.98;;;5.30;79.00;;;;;;5098648;28;20032;-77
2022/12/06 07:58:04;;;;;;;4.80;2.22;;;5.20;78.90;;;;;;5115919;28;20040;-76
2022/12/06 08:00:29;;;;;;;4.22;2.22;;;5.20;79.00;;;;;;5115275;28;20046;-77
2022/12/06 08:02:55;;;;;;;3.47;2.03;;;5.20;79.10;;;;;;5107104;28;20038;-77
2022/12/06 08:05:20;;;;;;;3.63;2.17;;;5.20;79.10;;;;;;5115026;28;20039;-77
2022/12/06 08:07:46;;;;;;;4.03;2.45;;;5.10;79.20;;;;;;5097868;28;20130;-77
2022/12/06 08:10:12;;;;;;;4.47;2.30;;;5.10;79.20;;;;;;5115678;28;20043;-77
2022/12/06 08:12:38;;;;;;;2.70;1.92;;;5.10;79.30;;;;;;5115235;28;20483;-77
2022/12/06 08:15:11;;;;;;;3.78;2.20;;;5.10;79.50;;;;;;5115089;28;20122;-77
2022/12/06 08:17:38;;;;;;;5.22;2.50;;;5.10;79.50;;;;;;5115156;28;20047;-77
2022/12/06 08:20:06;;;;;;;5.55;3.47;;;5.10;79.60;;;;;;5114990;28;20035;-77
2022/12/06 08:22:32;;;;;;;3.72;2.60;;;5.10;79.80;;;;;;5077770;28;20047;-68
2022/12/06 08:24:58;;;;;;;4.63;2.28;;;5.10;80.20;;;;;;5112183;28;20462;-68
2022/12/06 08:27:24;;;;;;;5.85;2.53;;;5.10;80.40;;;;;;5115028;28;20067;-68
2022/12/06 08:29:50;;;;;;;3.42;2.30;;;5.00;80.00;;;;;;5115192;28;20059;-68
2022/12/06 08:32:16;;;;;;;4.15;2.40;;;5.00;80.00;;;;;;5114708;28;20036;-69
2022/12/06 08:34:42;;;;;;;6.43;2.65;;;5.10;80.10;;;;;;5097794;28;20039;-68
2022/12/06 08:37:08;;;;;;;4.03;2.45;;;5.00;80.10;;;;;;5114946;28;20074;-68
2022/12/06 08:39:34;;;;;;;4.13;2.10;;;5.20;80.70;;;;;;5116031;28;20119;-68
2022/12/06 08:42:05;;;;;;;3.85;2.25;;;5.10;80.30;;;;;;5114440;28;20055;-68
2022/12/06 08:44:31;;;;;;;5.03;2.63;;;5.10;80.30;;;;;;5114378;28;20528;-68
2022/12/06 08:46:59;;;;;;;5.47;2.63;;;5.10;80.40;;;;;;5114505;28;20036;-68
2022/12/06 08:49:26;;;;;;;4.55;2.72;;;5.10;80.40;;;;;;5097773;28;20043;-68
2022/12/06 08:51:52;;;;;;;13.30;6.40;;;5.10;80.40;;;;;;5114382;28;20039;-68
2022/12/06 08:54:22;;;;;;;6.80;4.30;;;5.10;80.40;;;;;;5114779;28;20406;-69
2022/12/06 08:56:48;;;;;;;7.30;3.03;;;5.10;80.40;;;;;;5114235;28;20506;-68
2022/12/06 08:59:15;;;;;;;4.40;2.72;;;5.10;80.40;;;;;;5097344;28;20123;-68
2022/12/06 09:01:41;;;;;;;4.32;2.10;;;5.20;80.50;;;;;;5113960;28;20054;-68
2022/12/06 09:04:09;;;;;;;5.93;2.70;;;5.20;80.60;;;;;;5096179;28;20028;-69
2022/12/06 09:06:40;;;;;;;4.57;1.98;;;5.20;80.70;;;;;;5114095;28;20445;-69
2022/12/06 09:09:07;;;;;;;3.60;2.35;;;5.20;80.80;;;;;;5106364;28;20499;-69
2022/12/06 09:11:33;;;;;;;3.72;2.28;;;5.20;80.90;;;;;;5114135;28;20050;-68
2022/12/06 09:13:59;;;;;;;4.00;1.95;;;5.30;81.00;;;;;;5113907;28;20126;-68
2022/12/06 09:16:25;;;;;;;3.10;2.00;;;5.30;81.00;;;;;;5114248;28;20447;-68
2022/12/06 09:18:51;;;;;;;4.28;2.00;;;5.40;81.10;;;;;;5114035;28;20495;-69
2022/12/06 09:21:19;;;;;;;4.05;1.95;;;5.40;81.50;;;;;;5113810;28;20039;-68
2022/12/06 09:23:45;;;;;;;2.97;1.77;;;5.40;81.20;;;;;;5113591;28;20082;-69
2022/12/06 09:26:11;;;;;;;3.15;1.98;;;5.40;81.20;;;;;;5113865;28;20063;-69
2022/12/06 09:28:38;;;;;;;3.95;1.98;;;5.50;81.20;;;;;;5096636;28;20057;-69
2022/12/06 09:31:05;;;;;;;4.63;2.30;;;5.50;81.20;;;;;;5096554;28;20031;-69
2022/12/06 09:33:31;;;;;;;4.72;2.38;;;5.50;81.20;;;;;;5096648;28;20024;-69
2022/12/06 09:35:59;;;;;;;6.40;2.20;;;5.50;81.20;;;;;;5096555;28;20058;-78
2022/12/06 09:38:28;;;;;;;4.72;1.80;;;5.60;81.40;;;;;;5113424;28;20095;-77
2022/12/06 09:41:08;;;;;;;4.18;2.03;;;5.60;81.40;;;;;;5113618;28;20032;-77
2022/12/06 09:43:34;;;;;;;6.95;2.60;;;5.60;81.50;;;;;;5113567;28;20055;-77
2022/12/06 09:46:23;;;;;;;3.53;1.92;;;5.70;81.60;;;;;;5113447;28;20482;-77
2022/12/06 09:49:11;;;;;;;4.55;2.00;;;5.70;81.60;;;;;;5072688;28;20373;-78
2022/12/06 09:51:54;;;;;;;3.45;1.90;;;5.70;81.70;;;;;;5112202;28;20039;-77
2022/12/06 09:54:39;;;;;;;4.43;2.28;;;5.70;81.80;;;;;;5113453;28;20043;-78
2022/12/06 09:57:28;;;;;;;4.32;2.10;;;5.80;81.90;;;;;;5113281;28;20487;-78
2022/12/06 10:00:01;;;;;;;2.75;1.70;;;5.80;81.80;;;;;;5088348;28;20039;-78
2022/12/06 10:02:42;;;;;;;4.85;1.67;;;5.80;81.90;;;;;;5113344;28;20122;-77
2022/12/06 10:05:14;;;;;;;4.78;2.00;;;5.90;81.90;;;;;;5113189;28;20398;-78
2022/12/06 10:07:40;;;;;;;2.80;1.65;;;5.90;81.80;;;;;;5112729;28;20134;-78
2022/12/06 10:10:27;;;;;;;4.75;1.65;;;6.00;81.90;;;;;;5113385;28;20036;-78
2022/12/06 10:13:27;;;;;;;3.78;2.17;;;6.00;81.80;;;;;;5095897;28;20035;-77
2022/12/06 10:16:20;;;;;;;8.02;2.03;;;6.00;81.70;;;;;;5112770;28;20038;-77
2022/12/06 10:19:10;;;;;;;3.30;2.25;;;6.00;81.70;;;;;;5113371;28;20394;-78
2022/12/06 10:21:52;;;;;;;4.00;1.80;;;6.10;81.70;;;;;;5112992;28;20035;-78
2022/12/06 10:24:42;;;;;;;2.95;2.00;;;6.10;81.70;;;;;;5112747;28;20055;-77
2022/12/06 10:27:32;;;;;;;3.38;1.98;;;6.20;81.70;;;;;;5113039;28;20422;-77
2022/12/06 10:30:04;;;;;;;5.07;1.77;;;6.20;81.70;;;;;;5099546;28;20104;-77
2022/12/06 10:32:53;;;;;;;4.40;1.75;;;6.30;81.60;;;;;;5096539;28;20043;-77
2022/12/06 10:35:49;;;;;;;3.38;2.13;;;6.40;81.60;;;;;;5112022;28;20120;-68
2022/12/06 10:38:21;;;;;;;7.40;2.15;;;6.40;81.30;;;;;;5095242;28;20039;-69
2022/12/06 10:41:11;;;;;;;3.00;1.92;;;6.50;81.40;;;;;;5112317;28;20175;-69
2022/12/06 10:43:54;;;;;;;3.95;1.95;;;6.50;81.20;;;;;;5112119;28;20043;-70
2022/12/06 10:49:16;;;;;;;3.53;1.63;;;6.60;80.90;;;;;;5112349;28;20042;-69
2022/12/06 10:51:47;;;;;;;5.03;2.08;;;6.60;80.70;;;;;;5112027;28;20047;-69
2022/12/06 10:54:40;;;;;;;3.58;1.83;;;6.70;80.50;;;;;;5112223;28;20040;-69
2022/12/06 10:57:13;;;;;;;3.20;1.88;;;6.80;80.20;;;;;;5046494;28;20066;-69
2022/12/06 10:59:47;;;;;;;2.90;1.60;;;6.80;80.30;;;;;;5103731;28;20128;-69
2022/12/06 11:02:42;;;;;;;3.60;1.45;;;6.80;80.10;;;;;;5111784;28;20054;-69
2022/12/06 11:05:31;;;;;;;4.25;1.75;;;6.90;80.00;;;;;;5111572;28;20048;-69
2022/12/06 11:08:10;;;;;;;2.75;1.58;;;6.90;79.80;;;;;;5111732;28;20056;-69
2022/12/06 11:10:39;;;;;;;3.20;1.60;;;6.90;79.70;;;;;;5095091;28;20092;-69
2022/12/06 11:13:44;;;;;;;3.75;1.80;;;6.90;79.50;;;;;;5111418;28;20098;-70
2022/12/06 11:16:49;;;;;;;4.70;1.98;;;7.00;79.30;;;;;;5112117;28;20051;-69
2022/12/06 11:19:24;;;;;;;3.80;1.80;;;7.00;79.30;;;;;;5104049;28;20046;-69
2022/12/06 11:22:03;;;;;;;6.43;1.63;;;7.00;79.70;;;;;;5111672;28;20047;-69
2022/12/06 11:24:35;;;;;;;3.10;1.83;;;7.00;79.20;;;;;;5111747;28;20051;-69
2022/12/06 11:27:20;;;;;;;2.55;1.60;;;7.10;79.30;;;;;;5094001;28;20039;-69
2022/12/06 11:29:48;;;;;;;3.90;1.90;;;7.10;79.10;;;;;;5111731;28;20101;-69
2022/12/06 11:32:15;;;;;;;4.45;1.90;;;7.10;79.10;;;;;;5111509;28;20050;-69
2022/12/06 11:34:52;;;;;;;2.70;1.73;;;7.10;79.00;;;;;;5111783;28;20036;-69
2022/12/06 11:37:21;;;;;;;3.03;1.90;;;7.10;79.00;;;;;;5111498;28;20054;-70
2022/12/06 11:39:49;;;;;;;2.70;1.35;;;7.20;79.00;;;;;;5094919;28;20036;-69
2022/12/06 11:42:21;;;;;;;2.90;1.73;;;7.20;78.90;;;;;;5110106;28;20417;-69
2022/12/06 11:45:01;;;;;;;7.25;1.67;;;7.20;78.90;;;;;;5111546;28;20043;-69
2022/12/06 11:47:27;;;;;;;4.15;1.38;;;7.30;79.00;;;;;;5111518;28;20035;-69
2022/12/06 11:49:55;;;;;;;3.53;1.40;;;7.30;78.90;;;;;;5094952;28;20039;-69
2022/12/06 11:52:34;;;;;;;4.25;1.52;;;7.30;78.80;;;;;;5111343;28;20036;-69
2022/12/06 11:55:16;;;;;;;4.15;1.58;;;7.30;78.70;;;;;;5111644;28;20114;-69
2022/12/06 11:58:12;;;;;;;4.25;1.58;;;7.40;78.60;;;;;;5111505;28;20120;-69
2022/12/06 12:01:01;;;;;;;2.58;1.17;;;7.40;78.80;;;;;;5110989;28;20035;-69
2022/12/06 12:03:32;;;;;;;3.97;1.90;;;7.40;78.70;;;;;;5111155;28;20047;-69
2022/12/06 12:06:20;;;;;;;2.42;1.33;;;7.40;78.70;;;;;;5111752;28;20031;-69
2022/12/06 12:09:06;;;;;;;4.13;1.60;;;7.50;78.50;;;;;;5111383;28;20079;-70
2022/12/06 12:11:36;;;;;;;3.53;1.35;;;7.50;78.40;;;;;;5111028;28;20096;-69
2022/12/06 12:14:05;;;;;;;3.15;1.10;;;7.50;78.50;;;;;;5094440;28;20087;-70
2022/12/06 12:16:36;;;;;;;4.65;1.25;;;7.50;78.20;;;;;;5111431;28;20050;-70
2022/12/06 12:19:05;;;;;;;3.97;1.20;;;7.60;78.20;;;;;;5111502;28;20051;-69
2022/12/06 12:21:35;;;;;;;4.32;1.52;;;7.60;78.00;;;;;;5111031;28;20071;-69
2022/12/06 12:24:02;;;;;;;3.30;1.05;;;7.60;77.80;;;;;;5111181;28;20027;-70
2022/12/06 12:26:40;;;;;;;2.70;1.48;;;7.60;77.80;;;;;;5111416;28;20398;-70
2022/12/06 12:29:20;;;;;;;2.25;1.40;;;7.70;77.70;;;;;;5111151;28;20063;-70
2022/12/06 12:31:54;;;;;;;2.80;1.40;;;7.70;77.60;;;;;;5111011;28;20040;-70
2022/12/06 12:34:28;;;;;;;5.32;1.70;;;7.70;77.70;;;;;;5111172;28;20118;-70
2022/12/06 12:36:57;;;;;;;4.07;1.33;;;7.70;77.60;;;;;;5111026;28;20112;-70
2022/12/06 12:39:43;;;;;;;2.60;1.10;;;7.80;77.70;;;;;;5111832;28;20044;-70
2022/12/06 12:42:33;;;;;;;3.42;1.25;;;7.70;77.50;;;;;;5097720;28;20031;-70
2022/12/06 12:45:03;;;;;;;3.13;1.40;;;7.70;77.70;;;;;;5093639;28;20043;-70
2022/12/06 12:47:30;;;;;;;2.95;1.10;;;7.80;77.60;;;;;;5114541;28;20100;-70
2022/12/06 12:50:22;;;;;;;2.88;1.10;;;7.80;77.50;;;;;;5114310;28;20158;-70
2022/12/06 12:52:50;;;;;;;4.68;1.40;;;7.80;77.30;;;;;;5110701;28;20058;-70
2022/12/06 12:55:23;;;;;;;4.32;1.20;;;7.90;78.00;;;;;;5114509;28;20051;-71
2022/12/06 12:57:52;;;;;;;3.08;1.05;;;7.80;77.50;;;;;;5114176;28;20071;-70
2022/12/06 13:00:21;;;;;;;2.03;0.90;;;7.90;77.50;;;;;;5114754;28;20043;-70
2022/12/06 13:03:10;;;;;;;2.53;0.90;;;7.90;77.50;;;;;;5114341;28;20050;-70
2022/12/06 13:05:37;;;;;;;1.77;0.80;;;7.90;77.50;;;;;;5113330;28;20040;-70
2022/12/06 13:08:20;;;;;;;4.50;1.10;;;7.90;77.60;;;;;;5096803;28;20509;-70
2022/12/06 13:10:53;;;;;;;2.53;0.90;;;7.90;77.50;;;;;;5114223;28;20535;-70
2022/12/06 13:13:38;;;;;;;3.22;1.20;;;8.00;77.70;;;;;;5114016;28;20034;-70
2022/12/06 13:16:12;;;;;;;3.22;1.13;;;8.00;77.60;;;;;;5113889;28;20059;-70
2022/12/06 13:18:45;;;;;;;1.90;1.33;;;8.00;77.60;;;;;;5114288;28;20114;-70
2022/12/06 13:21:34;;;;;;;2.47;0.95;;;8.00;77.60;;;;;;5114293;28;20387;-70
2022/12/06 13:24:08;;;;;;;2.58;1.10;;;8.00;77.40;;;;;;5113840;28;20040;-70
2022/12/06 13:26:40;;;;;;;3.17;0.90;;;8.00;77.50;;;;;;5106320;28;20190;-70
2022/12/06 13:29:30;;;;;;;4.10;0.90;;;8.10;77.60;;;;;;5113961;28;20106;-70
2022/12/06 13:31:59;;;;;;;3.38;0.63;;;8.10;77.40;;;;;;5084715;28;20054;-70
2022/12/06 13:34:39;;;;;;;4.47;1.00;;;8.10;77.50;;;;;;5113497;28;20043;-70
2022/12/06 13:37:45;;;;;;;2.10;0.60;;;8.10;77.30;;;;;;5114036;28;20058;-70
2022/12/06 13:40:36;;;;;;;2.25;0.70;;;8.10;77.00;;;;;;5029253;28;20041;-77
2022/12/06 13:43:25;;;;;;;3.30;0.70;;;8.10;77.10;;;;;;5024394;28;20045;-79